Time;durP1;ratioP1;P1;durP2;ratioP2;P2;SDS_P1;SDS_P2;PMS_P1;PMS_P2;Temp;Humidity;BMP_temperature;BMP_pressure;BME280_temperature;BME280_humidity;BME280_pressure;Samples;Min_cycle;Max_cycle;Signal;HPM_P1;HPM_P2
2022/08/25 16:59:42;;;;;;;9.73;6.95;;;;;;;33.51;25.17;100599.72;698949;27;20646;-90
2022/08/25 17:00:05;;;;;;;7.33;6.43;;;;;;;33.59;25.70;100601.00;691217;28;1274;-90
2022/08/25 17:00:29;;;;;;;7.78;6.25;;;;;;;33.57;26.62;100586.75;683143;28;1175;-90
2022/08/25 17:00:50;;;;;;;6.57;5.78;;;;;;;33.62;26.21;100587.28;688121;28;1311;-90
2022/08/25 17:01:11;;;;;;;6.90;5.80;;;;;;;33.64;26.58;100594.28;685389;28;1149;-90
2022/08/25 17:01:34;;;;;;;6.70;6.00;;;;;;;33.59;26.17;100588.38;687753;28;1738;-91
2022/08/25 17:01:54;;;;;;;7.00;6.30;;;;;;;33.58;26.70;100583.94;688242;28;1366;-90
2022/08/25 17:02:15;;;;;;;7.13;6.43;;;;;;;33.56;26.82;100579.59;685555;28;1149;-90
2022/08/25 17:02:36;;;;;;;7.15;6.20;;;;;;;33.58;26.35;100583.94;687592;28;1993;-90
2022/08/25 17:03:00;;;;;;;8.45;5.90;;;;;;;33.63;26.77;100587.16;688179;28;1201;-91
2022/08/25 17:03:24;;;;;;;8.00;5.40;;;;;;;33.58;26.63;100586.63;689216;28;1552;-91
2022/08/25 17:03:45;;;;;;;6.30;5.20;;;;;;;33.55;26.91;100597.66;694047;28;1206;-91
2022/08/25 17:04:07;;;;;;;6.10;5.50;;;;;;;33.54;26.63;100598.63;690857;28;1148;-90
2022/08/25 17:04:28;;;;;;;6.00;5.50;;;;;;;33.45;26.85;100594.75;686691;28;1389;-91
2022/08/25 17:04:49;;;;;;;6.25;5.65;;;;;;;33.45;26.65;100596.59;682795;29;1248;-91
2022/08/25 17:05:11;;;;;;;6.15;5.30;;;;;;;33.52;26.76;100597.91;682554;28;1272;-90
2022/08/25 17:05:37;;;;;;;10.68;5.38;;;;;;;33.59;27.00;100606.41;680138;29;1221;-90
2022/08/25 17:05:58;;;;;;;10.80;5.50;;;;;;;33.51;26.91;100601.59;682716;28;1267;-90
2022/08/25 17:06:19;;;;;;;8.45;5.85;;;;;;;33.43;27.21;100590.44;685353;28;1153;-91
2022/08/25 17:06:43;;;;;;;7.82;5.80;;;;;;;33.42;27.12;100594.97;682923;28;1301;-91
2022/08/25 17:07:04;;;;;;;8.30;5.72;;;;;;;33.42;26.99;100596.84;682706;28;1221;-91
2022/08/25 17:07:24;;;;;;;6.72;5.50;;;;;;;33.39;26.97;100592.50;685270;28;1414;-90
2022/08/25 17:08:27;;;;;;;6.22;5.35;;;;;;;33.41;27.26;100597.78;685376;28;1355;-90
2022/08/25 17:08:29;;;;;;;5.97;5.15;;;;;;;33.38;27.09;100597.03;685516;28;1248;-91
2022/08/25 17:08:50;;;;;;;6.47;5.07;;;;;;;33.28;27.26;100587.88;688095;28;1267;-90
2022/08/25 17:09:12;;;;;;;6.30;5.07;;;;;;;33.29;27.25;100595.00;679993;29;1396;-90
2022/08/25 17:09:33;;;;;;;5.68;5.18;;;;;;;33.26;27.15;100589.84;687863;28;1390;-90
2022/08/25 17:09:56;;;;;;;5.85;5.25;;;;;;;33.28;27.02;100596.00;687982;28;1240;-90
2022/08/25 17:10:17;;;;;;;6.75;5.10;;;;;;;33.23;27.22;100595.41;682701;28;1482;-91
2022/08/25 17:10:41;;;;;;;9.27;5.40;;;;;;;33.24;27.17;100603.41;682685;28;1270;-91
2022/08/25 17:11:08;;;;;;;10.07;5.78;;;;;;;33.18;27.19;100602.97;685352;28;1206;-91
2022/08/25 17:11:33;;;;;;;7.80;5.50;;;;;;;33.17;27.47;100596.72;687167;28;1848;-90
2022/08/25 17:11:56;;;;;;;7.10;5.05;;;;;;;33.07;27.64;100590.25;685114;28;1290;-90
2022/08/25 17:12:19;;;;;;;7.22;5.18;;;;;;;33.07;27.29;100591.09;685141;28;1284;-90
2022/08/25 17:12:39;;;;;;;5.80;5.20;;;;;;;33.05;27.58;100595.75;687868;28;1228;-90
2022/08/25 17:13:00;;;;;;;6.75;5.40;;;;;;;32.96;27.48;100599.09;682619;28;1212;-90
2022/08/25 17:13:21;;;;;;;6.00;5.10;;;;;;;32.92;27.94;100592.16;682665;29;1172;-90
2022/08/25 17:13:45;;;;;;;6.60;5.22;;;;;;;32.88;27.77;100579.88;685359;28;1208;-90
2022/08/25 17:14:05;;;;;;;5.90;5.30;;;;;;;32.94;27.50;100596.50;682595;28;1299;-90
2022/08/25 17:14:27;;;;;;;5.70;5.20;;;;;;;32.83;27.61;100594.53;681447;28;1275;-90
2022/08/25 17:14:51;;;;;;;5.70;5.10;;;;;;;32.73;27.69;100597.97;682620;29;1268;-91
2022/08/25 17:15:11;;;;;;;6.60;5.10;;;;;;;32.69;28.14;100600.88;687915;28;1117;-90
2022/08/25 17:15:33;;;;;;;7.93;5.00;;;;;;;32.64;27.95;100592.22;684875;28;1258;-90
2022/08/25 17:15:53;;;;;;;7.87;4.90;;;;;;;32.67;28.11;100591.16;682613;28;1436;-91
2022/08/25 17:16:15;;;;;;;7.38;5.13;;;;;;;32.65;28.37;100601.19;685188;28;1279;-91
2022/08/25 17:16:36;;;;;;;7.60;5.40;;;;;;;32.60;28.09;100595.25;685249;28;1557;-91
2022/08/25 17:16:57;;;;;;;6.60;5.20;;;;;;;32.54;28.32;100589.31;687838;28;1208;-90
2022/08/25 17:17:19;;;;;;;7.07;5.30;;;;;;;32.56;28.27;100597.28;687684;28;1167;-91
2022/08/25 17:17:39;;;;;;;6.53;5.45;;;;;;;32.55;28.39;100599.13;685568;28;1416;-90
2022/08/25 17:18:01;;;;;;;7.75;5.57;;;;;;;32.50;28.48;100593.16;682396;29;1185;-91
2022/08/25 17:18:21;;;;;;;9.02;5.60;;;;;;;32.45;28.52;100586.38;682307;29;2032;-91
2022/08/25 17:18:43;;;;;;;8.07;5.50;;;;;;;32.48;28.52;100597.81;682601;29;1317;-91
2022/08/25 17:19:06;;;;;;;8.00;5.50;;;;;;;32.50;28.65;100600.41;684988;28;1256;-90
2022/08/25 17:19:27;;;;;;;7.35;5.53;;;;;;;32.52;28.55;100602.03;688252;28;1982;-91
2022/08/25 17:19:47;;;;;;;7.10;5.40;;;;;;;32.40;28.78;100570.47;687686;28;1336;-90
2022/08/25 17:20:08;;;;;;;7.10;5.50;;;;;;;32.47;28.93;100596.09;677264;29;1198;-90
2022/08/25 17:20:29;;;;;;;6.00;5.40;;;;;;;32.42;28.86;100587.44;682824;28;1366;-90
2022/08/25 17:20:58;;;;;;;6.10;5.50;;;;;;;32.37;29.22;100581.47;679776;29;1243;-91
2022/08/25 17:21:20;;;;;;;5.63;5.03;;;;;;;32.38;29.28;100594.00;682264;28;1275;-91
2022/08/25 17:21:44;;;;;;;6.38;5.20;;;;;;;32.31;29.19;100590.84;684880;28;1589;-90
2022/08/25 17:22:07;;;;;;;7.10;5.40;;;;;;;32.25;29.07;100599.34;687864;28;1447;-91
2022/08/25 17:22:28;;;;;;;6.45;5.50;;;;;;;32.18;28.96;100598.00;687563;28;2006;-90
2022/08/25 17:22:49;;;;;;;8.57;5.72;;;;;;;32.11;29.06;100592.16;685269;28;1230;-91
2022/08/25 17:23:11;;;;;;;7.85;5.55;;;;;;;32.07;29.45;100602.28;685128;28;1406;-91
2022/08/25 17:23:34;;;;;;;7.55;5.50;;;;;;;31.97;29.07;100588.53;686570;28;1950;-90
2022/08/25 17:23:56;;;;;;;6.53;5.45;;;;;;;31.94;29.52;100588.75;685073;28;1460;-90
2022/08/25 17:24:17;;;;;;;7.82;6.00;;;;;;;31.93;29.30;100589.72;685493;28;1394;-90
2022/08/25 17:24:40;;;;;;;8.50;6.20;;;;;;;31.85;29.30;100590.19;682610;28;1397;-91
2022/08/25 17:25:03;;;;;;;10.20;5.83;;;;;;;31.88;28.95;100589.16;682408;28;1217;-90
2022/08/25 17:25:24;;;;;;;9.68;5.50;;;;;;;31.88;29.12;100591.84;685323;28;1931;-91
2022/08/25 17:25:44;;;;;;;9.07;5.68;;;;;;;31.85;28.99;100582.09;685023;28;1168;-90
2022/08/25 17:26:06;;;;;;;7.05;5.68;;;;;;;31.90;29.07;100594.44;687554;28;1295;-90
2022/08/25 17:26:28;;;;;;;6.97;5.90;;;;;;;31.82;29.04;100587.72;685161;28;1269;-91
2022/08/25 17:26:49;;;;;;;7.25;5.60;;;;;;;31.88;29.25;100597.22;686735;28;1682;-91
2022/08/25 17:27:11;;;;;;;6.20;5.50;;;;;;;31.89;28.89;100598.97;685111;28;1346;-91
2022/08/25 17:27:31;;;;;;;6.28;5.43;;;;;;;31.85;28.88;100600.16;681217;28;1616;-90
2022/08/25 17:27:52;;;;;;;5.87;5.20;;;;;;;31.77;29.04;100589.00;685192;28;1307;-90
2022/08/25 17:28:13;;;;;;;6.50;5.63;;;;;;;31.82;29.35;100594.94;682431;28;1258;-91
2022/08/25 17:28:33;;;;;;;7.00;5.70;;;;;;;31.76;29.55;100598.06;684249;28;1990;-90
2022/08/25 17:28:56;;;;;;;7.93;5.80;;;;;;;31.66;29.39;100589.66;679726;29;1188;-91
2022/08/25 17:29:17;;;;;;;7.72;5.40;;;;;;;31.67;29.36;100588.69;684838;28;1370;-91
2022/08/25 17:29:39;;;;;;;8.00;5.30;;;;;;;31.64;29.26;100594.28;684684;28;1153;-90
2022/08/25 17:30:00;;;;;;;7.00;5.47;;;;;;;31.56;29.39;100586.66;687832;28;1091;-91
2022/08/25 17:30:23;;;;;;;6.68;5.30;;;;;;;31.51;29.31;100584.28;687399;28;1938;-90
2022/08/25 17:30:44;;;;;;;6.87;5.20;;;;;;;31.50;29.57;100597.84;687480;28;1287;-90
2022/08/25 17:31:07;;;;;;;7.68;5.55;;;;;;;31.43;29.73;100590.16;682235;29;1185;-91
2022/08/25 17:31:28;;;;;;;7.93;5.70;;;;;;;31.41;29.75;100594.78;682023;28;1513;-90
2022/08/25 17:31:50;;;;;;;7.78;5.75;;;;;;;31.31;30.09;100593.63;682190;28;1690;-90
2022/08/25 17:32:10;;;;;;;7.22;5.57;;;;;;;31.27;30.14;100601.03;685021;28;1368;-90
2022/08/25 17:32:31;;;;;;;7.53;5.37;;;;;;;31.26;30.09;100602.00;683523;28;1996;-91
2022/08/25 17:32:52;;;;;;;7.35;5.50;;;;;;;31.23;30.21;100604.88;687715;28;1291;-90
2022/08/25 17:33:14;;;;;;;6.50;5.43;;;;;;;31.21;30.12;100606.81;688184;28;1121;-90
2022/08/25 17:33:35;;;;;;;6.40;5.68;;;;;;;31.11;29.97;100597.53;682198;28;1597;-90
2022/08/25 17:33:56;;;;;;;6.25;5.60;;;;;;;31.16;29.96;100603.56;685062;28;1114;-90
2022/08/25 17:34:19;;;;;;;6.65;5.72;;;;;;;31.14;30.30;100609.03;685010;28;1330;-90
2022/08/25 17:34:40;;;;;;;8.15;5.60;;;;;;;31.08;30.20;100598.59;687306;28;1817;-90
2022/08/25 17:35:01;;;;;;;7.50;5.50;;;;;;;31.12;30.13;100610.94;682518;29;1186;-90
2022/08/25 17:35:21;;;;;;;7.85;5.40;;;;;;;31.04;30.12;100597.06;684893;28;1305;-91
2022/08/25 17:35:45;;;;;;;7.60;5.70;;;;;;;31.05;30.24;100602.34;685077;28;1294;-90
2022/08/25 17:36:06;;;;;;;8.82;5.80;;;;;;;31.01;30.49;100598.13;687651;28;1285;-90
2022/08/25 17:36:27;;;;;;;10.35;5.63;;;;;;;31.01;30.43;100603.50;685565;28;2049;-91
2022/08/25 17:36:49;;;;;;;12.20;5.55;;;;;;;31.01;30.66;100610.69;686330;28;2712;-89
2022/08/25 17:37:09;;;;;;;11.32;5.53;;;;;;;30.91;30.31;100605.00;681797;28;1889;-91
2022/08/25 17:37:30;;;;;;;8.60;5.53;;;;;;;30.88;30.54;100608.78;690149;28;1221;-89
2022/08/25 17:37:54;;;;;;;6.82;5.47;;;;;;;30.78;30.45;100596.81;687242;28;1401;-90
2022/08/25 17:38:16;;;;;;;6.95;5.63;;;;;;;30.82;30.58;100611.84;682050;29;1337;-90
2022/08/25 17:38:36;;;;;;;8.05;5.90;;;;;;;30.74;31.00;100603.34;686913;28;1506;-90
2022/08/25 17:38:57;;;;;;;7.83;5.90;;;;;;;30.68;31.11;100612.69;682229;28;1166;-90
2022/08/25 17:39:20;;;;;;;8.55;6.20;;;;;;;30.66;31.32;100609.19;684976;28;1970;-91
2022/08/25 17:39:41;;;;;;;6.95;6.07;;;;;;;30.61;31.36;100601.38;677885;29;2743;-90
2022/08/25 17:40:06;;;;;;;6.65;5.85;;;;;;;30.53;31.49;100600.94;679846;28;2834;-90
2022/08/25 17:40:26;;;;;;;7.22;5.60;;;;;;;30.59;31.32;100618.59;681722;29;2532;-91
2022/08/25 17:40:47;;;;;;;7.97;5.43;;;;;;;30.50;31.57;100606.53;684759;28;1090;-89
2022/08/25 17:41:09;;;;;;;7.20;5.50;;;;;;;30.48;31.67;100612.00;687298;28;1254;-90
2022/08/25 17:41:30;;;;;;;7.40;5.70;;;;;;;30.41;31.90;100609.75;687301;28;1969;-91
2022/08/25 17:41:51;;;;;;;7.88;5.85;;;;;;;30.37;31.68;100606.38;680670;28;2920;-90
2022/08/25 17:42:12;;;;;;;8.32;5.97;;;;;;;30.34;31.47;100610.13;687374;28;1180;-90
2022/08/25 17:42:34;;;;;;;7.75;5.97;;;;;;;30.30;31.76;100602.31;685528;28;1556;-90
2022/08/25 17:42:55;;;;;;;7.50;6.30;;;;;;;30.35;31.89;100614.53;676833;29;1236;-89
2022/08/25 17:43:15;;;;;;;7.40;6.10;;;;;;;30.26;31.81;100601.63;679485;29;1458;-89
2022/08/25 17:43:39;;;;;;;8.10;5.90;;;;;;;30.29;31.86;100605.97;692220;28;1851;-89
2022/08/25 17:44:02;;;;;;;6.88;5.70;;;;;;;30.29;31.75;100612.19;684720;28;1257;-89
2022/08/25 17:44:41;;;;;;;6.80;5.97;;;;;;;30.32;31.87;100613.84;682258;28;1489;-89
2022/08/25 17:45:02;;;;;;;7.28;5.90;;;;;;;30.28;31.79;100607.78;685179;28;1142;-89
2022/08/25 17:45:23;;;;;;;7.07;5.80;;;;;;;30.26;31.69;100595.38;687282;28;1511;-89
2022/08/25 17:45:44;;;;;;;6.78;5.90;;;;;;;30.33;31.73;100616.47;684781;28;1318;-89
2022/08/25 17:46:06;;;;;;;7.57;5.70;;;;;;;30.30;31.52;100597.78;682182;28;1172;-89
2022/08/25 17:46:27;;;;;;;8.43;5.90;;;;;;;30.28;31.75;100599.72;679439;29;1373;-89
2022/08/25 17:46:48;;;;;;;10.15;5.88;;;;;;;30.22;31.90;100587.47;679270;29;1276;-89
2022/08/25 17:47:08;;;;;;;9.90;5.90;;;;;;;30.32;31.64;100611.16;681397;28;1212;-89
2022/08/25 17:47:29;;;;;;;9.38;5.60;;;;;;;30.24;31.84;100603.50;689700;28;1698;-89
2022/08/25 17:47:50;;;;;;;7.20;5.50;;;;;;;30.22;31.86;100606.31;682289;28;1193;-89
2022/08/25 17:48:12;;;;;;;6.77;5.60;;;;;;;30.24;31.67;100603.50;676876;28;1179;-89
2022/08/25 17:48:36;;;;;;;6.38;5.63;;;;;;;30.21;31.85;100609.09;680872;29;1871;-89
2022/08/25 17:48:57;;;;;;;6.22;5.63;;;;;;;30.15;31.91;100602.25;679475;28;1278;-90
2022/08/25 17:49:18;;;;;;;6.25;5.65;;;;;;;30.08;31.85;100599.06;679525;29;1200;-89
2022/08/25 17:49:39;;;;;;;7.20;5.73;;;;;;;30.12;32.27;100610.47;686814;28;1651;-90
2022/08/25 17:50:00;;;;;;;8.23;5.70;;;;;;;30.08;32.19;100603.56;686095;28;1160;-89
2022/08/25 17:50:23;;;;;;;8.20;5.72;;;;;;;30.07;32.28;100608.06;684589;28;1315;-90
2022/08/25 17:50:44;;;;;;;8.50;5.72;;;;;;;30.03;32.21;100601.13;687337;28;1358;-89
2022/08/25 17:51:06;;;;;;;8.73;5.60;;;;;;;29.99;32.13;100599.53;684095;28;1400;-89
2022/08/25 17:51:27;;;;;;;8.77;5.82;;;;;;;30.01;32.44;100608.41;684451;28;1536;-89
2022/08/25 17:51:48;;;;;;;8.70;5.80;;;;;;;30.00;32.36;100608.47;679489;29;1640;-89
2022/08/25 17:52:09;;;;;;;9.43;6.20;;;;;;;30.02;32.47;100606.59;683803;28;1833;-89
2022/08/25 17:52:29;;;;;;;9.02;6.03;;;;;;;29.95;32.31;100595.28;684532;28;1364;-89
2022/08/25 17:52:51;;;;;;;8.07;6.10;;;;;;;29.97;32.27;100601.44;681990;28;1209;-89
2022/08/25 17:53:12;;;;;;;7.57;5.80;;;;;;;29.96;32.46;100599.72;683028;28;1321;-89
2022/08/25 17:53:34;;;;;;;8.60;5.70;;;;;;;29.94;32.49;100607.00;679890;28;1357;-90
2022/08/25 17:53:55;;;;;;;9.15;5.95;;;;;;;29.87;32.68;100605.63;679692;29;1304;-89
2022/08/25 17:54:16;;;;;;;9.85;5.68;;;;;;;29.83;32.76;100607.59;681936;28;1220;-88
2022/08/25 17:54:37;;;;;;;9.65;5.80;;;;;;;29.80;32.93;100616.72;684331;28;2062;-89
2022/08/25 17:54:58;;;;;;;7.90;5.45;;;;;;;29.74;32.73;100598.22;684909;28;1182;-89
2022/08/25 17:55:21;;;;;;;6.03;5.30;;;;;;;29.65;32.59;100596.94;681974;29;1154;-89
2022/08/25 17:55:43;;;;;;;5.80;5.20;;;;;;;29.65;32.89;100604.13;681952;28;2238;-89
2022/08/25 17:56:07;;;;;;;6.97;5.30;;;;;;;29.66;32.99;100616.59;681871;28;1278;-88
2022/08/25 17:56:28;;;;;;;7.13;5.35;;;;;;;29.59;33.12;100607.16;681824;28;1698;-89
2022/08/25 17:56:49;;;;;;;7.15;5.40;;;;;;;29.56;32.89;100614.44;678185;29;1181;-89
2022/08/25 17:57:10;;;;;;;6.20;5.50;;;;;;;29.51;33.18;100611.13;684647;28;1528;-89
2022/08/25 17:57:31;;;;;;;6.18;5.53;;;;;;;29.51;33.25;100610.28;684299;28;1978;-90
2022/08/25 17:57:52;;;;;;;6.75;5.50;;;;;;;29.47;33.01;100609.56;687436;28;1290;-89
2022/08/25 17:58:15;;;;;;;7.25;5.90;;;;;;;29.47;33.01;100616.75;684622;28;1075;-89
2022/08/25 17:58:38;;;;;;;6.80;6.10;;;;;;;29.41;33.26;100610.75;678793;29;1835;-90
2022/08/25 17:58:58;;;;;;;7.65;6.20;;;;;;;29.35;33.33;100607.50;685105;28;1341;-90
2022/08/25 17:59:19;;;;;;;6.77;5.90;;;;;;;29.34;33.82;100619.22;684415;28;1914;-89
2022/08/25 17:59:40;;;;;;;7.05;5.75;;;;;;;29.24;33.65;100603.59;683906;28;1681;-90
2022/08/25 18:00:05;;;;;;;8.80;5.97;;;;;;;29.26;33.74;100611.56;684770;28;1207;-89
2022/08/25 18:00:31;;;;;;;8.65;5.80;;;;;;;29.20;33.72;100611.91;685113;28;1208;-89
2022/08/25 18:00:52;;;;;;;6.80;6.10;;;;;;;29.17;33.86;100612.91;679228;29;1917;-89
2022/08/25 18:01:19;;;;;;;8.33;6.20;;;;;;;29.06;34.21;100607.25;679421;29;1085;-89
2022/08/25 18:01:40;;;;;;;9.35;6.55;;;;;;;29.08;34.23;100608.03;681686;28;1390;-89
2022/08/25 18:02:01;;;;;;;11.50;6.55;;;;;;;29.05;33.92;100622.50;678852;29;1632;-89
2022/08/25 18:02:21;;;;;;;10.27;6.57;;;;;;;29.03;34.08;100615.47;677129;28;1198;-89
2022/08/25 18:02:42;;;;;;;10.02;6.38;;;;;;;28.99;34.39;100612.06;682552;28;2002;-89
2022/08/25 18:03:05;;;;;;;9.20;5.97;;;;;;;28.91;34.14;100615.19;681896;28;1252;-90
2022/08/25 18:03:26;;;;;;;9.77;5.60;;;;;;;28.91;34.54;100619.66;679098;29;1828;-89
2022/08/25 18:03:48;;;;;;;8.63;5.75;;;;;;;28.86;34.39;100619.91;679433;29;1404;-89
2022/08/25 18:04:09;;;;;;;6.82;5.80;;;;;;;28.77;34.37;100607.78;686200;28;1273;-90
2022/08/25 18:04:30;;;;;;;6.60;6.00;;;;;;;28.80;34.75;100618.38;682008;29;1314;-89
2022/08/25 18:04:51;;;;;;;6.37;5.77;;;;;;;28.73;34.92;100608.91;679374;29;1299;-89
2022/08/25 18:05:13;;;;;;;6.28;5.68;;;;;;;28.73;35.00;100608.91;679278;29;1247;-89
2022/08/25 18:05:36;;;;;;;6.22;5.63;;;;;;;28.78;34.57;100611.34;684450;28;2046;-90
2022/08/25 18:05:57;;;;;;;6.47;5.78;;;;;;;28.79;34.64;100613.06;687417;28;1702;-88
2022/08/25 18:06:19;;;;;;;6.55;5.95;;;;;;;28.79;34.61;100613.97;687082;28;1348;-89
2022/08/25 18:06:40;;;;;;;6.55;5.90;;;;;;;28.75;34.39;100612.38;679355;29;1570;-90
2022/08/25 18:07:01;;;;;;;6.67;6.00;;;;;;;28.76;34.49;100619.47;677538;29;1845;-89
2022/08/25 18:07:22;;;;;;;7.47;6.00;;;;;;;28.75;34.85;100623.09;687363;28;1484;-89
2022/08/25 18:07:43;;;;;;;7.30;5.72;;;;;;;28.72;34.69;100616.06;684440;28;1596;-90
2022/08/25 18:08:04;;;;;;;7.70;5.60;;;;;;;28.72;34.48;100618.75;676600;29;1253;-90
2022/08/25 18:08:28;;;;;;;7.55;5.65;;;;;;;28.63;34.76;100608.50;681807;28;1910;-89
2022/08/25 18:08:49;;;;;;;7.25;5.75;;;;;;;28.63;34.66;100613.88;687277;28;1362;-89
2022/08/25 18:09:10;;;;;;;6.75;5.80;;;;;;;28.63;34.60;100619.22;689965;28;1161;-89
2022/08/25 18:09:33;;;;;;;7.03;5.73;;;;;;;28.59;34.67;100623.88;684973;28;1962;-89
2022/08/25 18:09:54;;;;;;;7.90;5.80;;;;;;;28.60;34.84;100619.41;687209;28;1428;-89
2022/08/25 18:10:16;;;;;;;8.20;5.90;;;;;;;28.55;34.59;100616.06;684713;28;1172;-89
2022/08/25 18:10:38;;;;;;;8.10;6.10;;;;;;;28.58;34.94;100622.16;687061;28;1946;-88
2022/08/25 18:10:58;;;;;;;7.72;6.20;;;;;;;28.57;34.61;100628.47;683451;28;1315;-89
2022/08/25 18:11:23;;;;;;;7.05;6.03;;;;;;;28.57;34.96;100624.91;677216;29;1157;-89
2022/08/25 18:11:44;;;;;;;8.27;6.20;;;;;;;28.56;34.84;100628.53;677568;29;1214;-89
2022/08/25 18:12:05;;;;;;;8.43;6.43;;;;;;;28.49;34.69;100624.41;680235;29;1240;-89
2022/08/25 18:12:26;;;;;;;8.50;6.40;;;;;;;28.46;34.84;100620.97;677270;29;1668;-89
2022/08/25 18:12:49;;;;;;;7.35;5.90;;;;;;;28.42;34.89;100622.06;680407;29;1233;-90
2022/08/25 18:13:09;;;;;;;7.80;5.53;;;;;;;28.41;35.02;100617.63;680225;29;1475;-89
2022/08/25 18:13:30;;;;;;;8.20;5.60;;;;;;;28.36;35.07;100621.50;686246;28;1838;-89
2022/08/25 18:13:53;;;;;;;9.32;5.88;;;;;;;28.33;35.25;100622.50;688092;28;1529;-88
2022/08/25 18:14:15;;;;;;;9.20;6.10;;;;;;;28.33;35.12;100630.56;680241;28;1290;-90
2022/08/25 18:14:38;;;;;;;9.88;6.28;;;;;;;28.30;35.34;100625.34;682665;28;1968;-88
2022/08/25 18:14:59;;;;;;;7.75;5.80;;;;;;;28.27;35.65;100622.84;680196;28;1209;-89
2022/08/25 18:15:20;;;;;;;9.60;5.80;;;;;;;28.22;35.51;100616.78;683870;28;1259;-90
2022/08/25 18:15:43;;;;;;;8.55;5.68;;;;;;;28.24;35.58;100622.94;682662;29;1440;-90
2022/08/25 18:16:04;;;;;;;8.70;5.82;;;;;;;28.20;35.30;100628.47;678112;28;1393;-90
2022/08/25 18:16:28;;;;;;;6.72;5.90;;;;;;;28.20;35.47;100628.47;683092;28;1706;-88
2022/08/25 18:16:52;;;;;;;6.85;6.00;;;;;;;28.15;35.32;100626.97;681183;29;1743;-89
2022/08/25 18:17:13;;;;;;;9.80;6.05;;;;;;;28.13;35.43;100631.50;680271;29;1347;-90
2022/08/25 18:17:34;;;;;;;10.10;5.90;;;;;;;28.09;35.75;100627.25;678065;29;1518;-89
2022/08/25 18:17:58;;;;;;;8.65;6.03;;;;;;;28.02;35.72;100618.59;680416;28;1129;-89
2022/08/25 18:18:20;;;;;;;6.93;6.20;;;;;;;28.00;35.84;100620.50;688260;28;1375;-90
2022/08/25 18:18:41;;;;;;;7.47;6.35;;;;;;;27.92;35.84;100613.69;685504;28;1151;-90
2022/08/25 18:19:02;;;;;;;7.70;6.25;;;;;;;27.93;36.07;100615.41;680166;28;1328;-90
2022/08/25 18:19:22;;;;;;;7.75;6.13;;;;;;;27.93;36.09;100623.47;680085;29;1968;-90
2022/08/25 18:19:44;;;;;;;7.10;5.85;;;;;;;27.88;35.92;100620.16;679325;29;1842;-89
2022/08/25 18:20:08;;;;;;;6.57;5.70;;;;;;;27.90;36.20;100637.03;682787;28;1243;-89
2022/08/25 18:20:29;;;;;;;6.45;5.75;;;;;;;27.81;36.32;100623.19;680061;28;1377;-89
2022/08/25 18:20:49;;;;;;;6.55;5.80;;;;;;;27.77;36.33;100617.09;682859;29;1824;-89
2022/08/25 18:21:13;;;;;;;7.90;6.20;;;;;;;27.81;36.56;100637.47;677303;29;1916;-90
2022/08/25 18:21:35;;;;;;;8.45;6.20;;;;;;;27.72;36.66;100616.47;682590;29;1838;-89
2022/08/25 18:21:56;;;;;;;8.90;6.30;;;;;;;27.72;36.47;100624.50;682991;28;1279;-89
2022/08/25 18:22:17;;;;;;;8.73;6.45;;;;;;;27.69;36.52;100621.94;682899;28;1062;-88
2022/08/25 18:22:40;;;;;;;10.27;6.57;;;;;;;27.69;36.61;100624.63;688279;28;1268;-89
2022/08/25 18:23:01;;;;;;;9.90;6.70;;;;;;;27.67;36.65;100626.53;677669;29;1288;-89
2022/08/25 18:23:21;;;;;;;9.65;6.75;;;;;;;27.63;36.79;100617.72;680068;29;1153;-89
2022/08/25 18:23:43;;;;;;;7.73;6.60;;;;;;;27.61;36.79;100620.47;687651;28;1168;-90
2022/08/25 18:24:07;;;;;;;7.55;6.65;;;;;;;27.60;36.83;100617.88;682866;29;1318;-89
2022/08/25 18:24:27;;;;;;;7.50;6.57;;;;;;;27.59;36.79;100627.72;677152;29;1676;-89
2022/08/25 18:24:48;;;;;;;7.20;6.50;;;;;;;27.58;36.92;100619.72;685283;28;1933;-88
2022/08/25 18:25:13;;;;;;;6.63;6.03;;;;;;;27.60;37.06;100637.50;688124;28;1099;-89
2022/08/25 18:25:33;;;;;;;7.15;6.10;;;;;;;27.55;36.92;100631.50;685274;28;1642;-89
2022/08/25 18:25:54;;;;;;;7.10;6.22;;;;;;;27.48;36.71;100612.13;680162;29;1141;-89
2022/08/25 18:26:16;;;;;;;7.25;6.50;;;;;;;27.51;36.70;100622.72;685601;28;1251;-88
2022/08/25 18:26:38;;;;;;;6.80;6.10;;;;;;;27.54;37.10;100621.69;688131;28;1578;-88
2022/08/25 18:26:59;;;;;;;7.32;6.38;;;;;;;27.54;37.10;100623.50;685600;28;1341;-90
2022/08/25 18:27:20;;;;;;;8.63;6.57;;;;;;;27.56;37.12;100633.22;680261;29;1484;-89
2022/08/25 18:27:41;;;;;;;8.65;6.60;;;;;;;27.53;36.94;100622.63;682964;28;1503;-89
2022/08/25 18:28:02;;;;;;;10.00;6.35;;;;;;;27.52;37.09;100626.25;679959;29;1303;-89
2022/08/25 18:28:23;;;;;;;10.00;6.40;;;;;;;27.51;36.82;100627.19;685548;28;1145;-90
2022/08/25 18:28:44;;;;;;;9.70;6.30;;;;;;;27.50;37.06;100628.13;685009;28;1647;-90
2022/08/25 18:29:07;;;;;;;8.50;6.27;;;;;;;27.49;36.93;100631.75;674863;29;1097;-90
2022/08/25 18:29:28;;;;;;;7.85;6.10;;;;;;;27.48;36.94;100633.56;677600;29;1906;-90
2022/08/25 18:29:49;;;;;;;8.75;6.18;;;;;;;27.42;37.29;100628.47;682925;29;1180;-90
2022/08/25 18:30:10;;;;;;;7.70;6.10;;;;;;;27.40;37.25;100621.47;683488;28;1867;-90
2022/08/25 18:30:32;;;;;;;7.85;6.40;;;;;;;27.42;37.19;100630.31;679962;28;1263;-90
2022/08/25 18:30:53;;;;;;;7.50;6.70;;;;;;;27.40;37.17;100627.69;680328;28;1286;-90
2022/08/25 18:31:13;;;;;;;8.02;6.70;;;;;;;27.37;37.17;100623.31;688344;28;1110;-90
2022/08/25 18:31:38;;;;;;;7.97;6.63;;;;;;;27.39;37.18;100633.97;688188;28;1310;-89
2022/08/25 18:31:59;;;;;;;8.60;6.50;;;;;;;27.34;37.16;100628.84;682848;28;1371;-90
2022/08/25 18:32:23;;;;;;;8.05;6.22;;;;;;;27.37;37.14;100639.41;687890;28;2000;-89
2022/08/25 18:32:44;;;;;;;8.27;6.40;;;;;;;27.33;37.32;100636.94;683538;28;1811;-89
2022/08/25 18:33:05;;;;;;;9.57;6.10;;;;;;;27.32;37.45;100635.19;675760;29;1226;-90
2022/08/25 18:33:28;;;;;;;9.70;6.55;;;;;;;27.32;37.43;100644.13;677317;29;1463;-88
2022/08/25 18:33:56;;;;;;;8.35;6.60;;;;;;;27.24;37.49;100639.09;678008;29;1403;-88
2022/08/25 18:34:17;;;;;;;8.88;6.90;;;;;;;27.22;37.49;100629.38;677587;29;1336;-90
2022/08/25 18:34:38;;;;;;;8.30;6.78;;;;;;;27.23;37.64;100628.47;679198;28;3042;-89
2022/08/25 18:34:59;;;;;;;7.80;6.50;;;;;;;27.23;37.54;100641.84;683123;29;1326;-89
2022/08/25 18:35:20;;;;;;;8.23;6.75;;;;;;;27.18;37.64;100625.97;685356;28;1377;-89
2022/08/25 18:35:43;;;;;;;8.82;6.90;;;;;;;27.19;37.36;100629.53;682575;28;2020;-89
2022/08/25 18:36:04;;;;;;;9.63;7.10;;;;;;;27.19;37.50;100629.53;680209;29;1267;-90
2022/08/25 18:36:26;;;;;;;11.75;6.93;;;;;;;27.21;37.64;100633.00;680273;29;1545;-89
2022/08/25 18:36:47;;;;;;;13.15;7.50;;;;;;;27.18;37.65;100633.16;680619;29;1886;-89
2022/08/25 18:40:21;;;;;;;7.97;7.00;;;;;;;27.21;37.60;100631.19;685450;28;1405;-90
2022/08/25 18:40:42;;;;;;;8.23;6.57;;;;;;;27.19;37.63;100635.75;677396;29;1401;-90
2022/08/25 18:41:08;;;;;;;7.22;6.15;;;;;;;27.24;37.79;100639.09;685376;28;1114;-90
2022/08/25 18:41:34;;;;;;;7.00;6.30;;;;;;;27.18;37.62;100634.00;685490;28;1369;-89
2022/08/25 18:41:54;;;;;;;7.32;6.55;;;;;;;27.12;37.71;100622.69;677582;29;1332;-89
2022/08/25 18:42:15;;;;;;;8.25;6.70;;;;;;;27.14;37.67;100635.09;686623;28;1108;-89
2022/08/25 18:42:36;;;;;;;9.18;6.80;;;;;;;27.14;37.53;100643.13;685238;28;1565;-89
2022/08/25 18:43:00;;;;;;;9.90;6.70;;;;;;;27.10;37.86;100639.72;678026;28;1209;-93
2022/08/25 18:43:21;;;;;;;8.77;6.65;;;;;;;27.02;37.90;100622.19;680324;29;1369;-88
2022/08/25 18:43:42;;;;;;;8.15;6.60;;;;;;;27.08;37.64;100648.75;680485;29;1172;-89
2022/08/25 18:44:03;;;;;;;7.40;6.70;;;;;;;27.14;38.08;100643.13;680204;29;1162;-91
2022/08/25 18:44:23;;;;;;;8.98;6.50;;;;;;;27.10;37.71;100631.66;685458;28;1403;-91
2022/08/25 18:44:44;;;;;;;9.57;6.57;;;;;;;27.05;37.84;100636.34;685681;28;1229;-91
2022/08/25 18:45:08;;;;;;;10.35;6.50;;;;;;;27.02;37.87;100639.13;683014;29;1180;-89
2022/08/25 18:45:40;;;;;;;8.75;6.50;;;;;;;27.02;38.18;100647.16;686059;28;1288;-89
2022/08/25 18:46:03;;;;;;;9.40;6.25;;;;;;;26.94;37.93;100630.56;680054;29;1405;-89
2022/08/25 18:46:24;;;;;;;10.52;6.30;;;;;;;26.91;38.05;100636.03;682724;29;1218;-90
2022/08/25 18:46:45;;;;;;;10.20;6.30;;;;;;;26.89;38.17;100628.09;685542;28;1759;-90
2022/08/25 18:47:08;;;;;;;8.85;6.15;;;;;;;26.86;38.52;100635.38;678210;29;1209;-89